Time;durP1;ratioP1;P1;durP2;ratioP2;P2;SDS_P1;SDS_P2;PMS_P1;PMS_P2;Temp;Humidity;BMP_temperature;BMP_pressure;BME280_temperature;BME280_humidity;BME280_pressure;Samples;Min_cycle;Max_cycle;Signal;HPM_P1;HPM_P2
2022/01/10 00:00:46;;;;;;;21.85;9.93;;;3.10;99.90;;;;;;5113036;27;20067;-75
2022/01/10 00:03:12;;;;;;;21.77;10.57;;;3.10;99.90;;;;;;5127679;27;20047;-75
2022/01/10 00:05:38;;;;;;;19.17;10.82;;;3.00;99.90;;;;;;5132710;27;20889;-75
2022/01/10 00:08:04;;;;;;;18.58;10.50;;;3.00;99.90;;;;;;5133506;27;20051;-75
2022/01/10 00:10:32;;;;;;;19.50;10.73;;;2.90;99.90;;;;;;5132089;27;20039;-74
2022/01/10 00:12:58;;;;;;;20.77;10.65;;;2.90;99.90;;;;;;5112857;28;20039;-74
2022/01/10 00:15:24;;;;;;;22.90;10.65;;;2.90;99.90;;;;;;5114310;27;20090;-74
2022/01/10 00:17:50;;;;;;;18.20;10.18;;;2.80;99.90;;;;;;5121139;27;20035;-75
2022/01/10 00:20:17;;;;;;;17.05;9.65;;;2.80;99.90;;;;;;5164753;27;20043;-75
2022/01/10 00:22:48;;;;;;;19.80;10.25;;;2.70;99.90;;;;;;5133879;27;20058;-75
2022/01/10 00:25:17;;;;;;;21.45;9.73;;;2.60;99.90;;;;;;5132179;27;20592;-75
2022/01/10 00:27:43;;;;;;;20.02;10.38;;;2.60;99.90;;;;;;5131825;27;20047;-75
2022/01/10 00:30:11;;;;;;;17.20;10.75;;;2.50;99.90;;;;;;5120195;27;20125;-75
2022/01/10 00:32:41;;;;;;;20.77;10.85;;;2.50;99.90;;;;;;5112337;28;20079;-74
2022/01/10 00:35:08;;;;;;;27.23;12.27;;;2.50;99.90;;;;;;5121993;27;20065;-75
2022/01/10 00:37:34;;;;;;;19.70;11.13;;;2.40;99.90;;;;;;5131704;27;20062;-75
2022/01/10 00:40:02;;;;;;;23.15;12.15;;;2.40;99.90;;;;;;5123695;27;20152;-75
2022/01/10 00:42:29;;;;;;;21.30;11.68;;;2.40;99.90;;;;;;5129297;27;20047;-75
2022/01/10 00:44:57;;;;;;;23.50;11.88;;;2.40;99.90;;;;;;5131276;27;20074;-75
2022/01/10 00:47:23;;;;;;;20.48;11.60;;;2.40;99.90;;;;;;5133717;27;20058;-75
2022/01/10 00:49:48;;;;;;;24.52;12.30;;;2.40;99.90;;;;;;5131940;27;20047;-75
2022/01/10 00:52:14;;;;;;;21.38;11.70;;;2.40;99.90;;;;;;5132121;28;20095;-75
2022/01/10 00:54:40;;;;;;;23.27;11.65;;;2.40;99.90;;;;;;5133545;27;20043;-75
2022/01/10 00:57:06;;;;;;;27.88;11.88;;;2.30;99.90;;;;;;5133971;27;20526;-75
2022/01/10 00:59:32;;;;;;;21.40;11.98;;;2.30;99.90;;;;;;5133419;28;20047;-75
2022/01/10 01:01:58;;;;;;;23.30;11.60;;;2.30;99.90;;;;;;5120782;27;20035;-74
2022/01/10 01:04:24;;;;;;;17.17;9.93;;;2.20;99.90;;;;;;5132990;28;20476;-76
2022/01/10 01:06:50;;;;;;;19.35;10.70;;;2.10;99.90;;;;;;5122194;27;20074;-75
2022/01/10 01:09:20;;;;;;;18.65;10.57;;;2.00;99.90;;;;;;5113951;27;20051;-75
2022/01/10 01:17:13;;;;;;;20.50;10.95;;;1.80;99.90;;;;;;5128399;27;20055;-75
2022/01/10 01:25:09;;;;;;;23.15;13.43;;;1.80;99.90;;;;;;5132639;28;20142;-75
2022/01/10 01:27:35;;;;;;;29.25;13.65;;;1.80;99.90;;;;;;5116415;27;20067;-74
2022/01/10 01:30:01;;;;;;;24.40;13.25;;;1.80;99.90;;;;;;5152763;27;20446;-76
2022/01/10 01:32:26;;;;;;;26.77;13.85;;;1.80;99.90;;;;;;5128732;27;20116;-75
2022/01/10 01:34:56;;;;;;;28.10;14.18;;;1.90;99.90;;;;;;5112693;28;20108;-76
2022/01/10 01:37:22;;;;;;;31.73;15.45;;;1.90;99.90;;;;;;5112550;28;20135;-74
2022/01/10 01:39:48;;;;;;;22.85;13.95;;;1.80;99.90;;;;;;5128415;27;20122;-76
2022/01/10 01:45:15;;;;;;;29.48;16.20;;;1.80;99.90;;;;;;5112283;28;20130;-75
2022/01/10 01:47:43;;;;;;;31.65;16.48;;;1.80;99.90;;;;;;5116900;27;20054;-76
2022/01/10 01:50:10;;;;;;;25.08;15.95;;;1.80;99.90;;;;;;5147958;27;20042;-74
2022/01/10 01:52:35;;;;;;;28.50;16.25;;;1.80;99.90;;;;;;5137483;27;20122;-75
2022/01/10 01:55:03;;;;;;;29.02;16.70;;;1.80;99.90;;;;;;5136348;27;20082;-75
2022/01/10 01:57:29;;;;;;;31.05;17.02;;;1.70;99.90;;;;;;5118846;27;20514;-75
2022/01/10 01:59:55;;;;;;;30.90;17.25;;;1.70;99.90;;;;;;5123772;27;20047;-75
2022/01/10 02:02:21;;;;;;;32.63;17.52;;;1.60;99.90;;;;;;5133821;27;20047;-75
2022/01/10 02:04:47;;;;;;;30.42;17.73;;;1.60;99.90;;;;;;5136554;27;20096;-75
2022/01/10 02:07:12;;;;;;;31.40;19.23;;;1.60;99.90;;;;;;5133721;27;20479;-75
2022/01/10 02:09:38;;;;;;;35.50;20.02;;;1.60;99.90;;;;;;5134402;27;20055;-75
2022/01/10 02:12:04;;;;;;;34.55;20.27;;;1.60;99.90;;;;;;5135211;27;20047;-76
2022/01/10 02:14:30;;;;;;;33.33;20.73;;;1.50;99.90;;;;;;5135789;27;20062;-75
2022/01/10 02:16:56;;;;;;;34.58;21.85;;;1.50;99.90;;;;;;5130141;27;20110;-75
2022/01/10 02:19:25;;;;;;;37.08;22.23;;;1.50;99.90;;;;;;5115123;28;20051;-75
2022/01/10 02:21:51;;;;;;;38.53;22.83;;;1.50;99.90;;;;;;5128164;27;20483;-75
2022/01/10 02:24:18;;;;;;;39.25;23.73;;;1.50;99.90;;;;;;5135635;27;20433;-75
2022/01/10 02:26:48;;;;;;;42.92;25.23;;;1.40;99.90;;;;;;5133435;27;20035;-75
2022/01/10 02:29:14;;;;;;;40.33;24.75;;;1.40;99.90;;;;;;5134069;27;20055;-75
2022/01/10 02:31:41;;;;;;;40.28;26.73;;;1.40;99.90;;;;;;5148143;27;20039;-75
2022/01/10 02:34:07;;;;;;;38.65;25.65;;;1.40;99.90;;;;;;5135597;27;20051;-76
2022/01/10 02:36:34;;;;;;;41.35;26.30;;;1.40;99.90;;;;;;5133278;27;20575;-76
2022/01/10 02:39:03;;;;;;;45.65;27.33;;;1.40;99.90;;;;;;5135904;27;20130;-75
2022/01/10 02:41:31;;;;;;;44.60;27.00;;;1.40;99.90;;;;;;5133089;27;20126;-75
2022/01/10 02:43:59;;;;;;;44.10;28.63;;;1.40;99.90;;;;;;5115273;28;20108;-75
2022/01/10 02:46:26;;;;;;;45.63;29.55;;;1.30;99.90;;;;;;5114738;27;20074;-75
2022/01/10 02:48:52;;;;;;;42.72;29.05;;;1.30;99.90;;;;;;5115178;28;20044;-76
2022/01/10 02:51:18;;;;;;;41.83;30.40;;;1.30;99.90;;;;;;5129041;27;20061;-75
2022/01/10 02:53:44;;;;;;;44.75;30.20;;;1.30;99.90;;;;;;5135509;27;20043;-75
2022/01/10 02:56:10;;;;;;;42.17;29.98;;;1.30;99.90;;;;;;5131909;27;20043;-76
2022/01/10 02:58:36;;;;;;;43.33;31.10;;;1.30;99.90;;;;;;5114921;27;20040;-75
2022/01/10 03:01:03;;;;;;;46.80;32.00;;;1.30;99.90;;;;;;5131293;27;20126;-76
2022/01/10 03:03:32;;;;;;;44.30;32.42;;;1.30;99.90;;;;;;5155258;27;20407;-75
2022/01/10 03:06:00;;;;;;;45.20;31.58;;;1.20;99.90;;;;;;5137311;27;20047;-76
2022/01/10 03:08:28;;;;;;;53.53;34.70;;;1.20;99.90;;;;;;5118192;27;20086;-75
2022/01/10 03:10:54;;;;;;;50.45;35.33;;;1.20;99.90;;;;;;5130397;27;20096;-76
2022/01/10 03:13:20;;;;;;;51.20;35.28;;;1.30;99.90;;;;;;5130417;27;20043;-75
2022/01/10 03:15:46;;;;;;;51.78;35.05;;;1.30;99.90;;;;;;5135148;27;20100;-75
2022/01/10 03:18:12;;;;;;;47.13;34.90;;;1.20;99.90;;;;;;5115818;27;20044;-75
2022/01/10 03:20:37;;;;;;;49.50;35.35;;;1.20;99.90;;;;;;5113950;28;20127;-75
2022/01/10 03:23:03;;;;;;;49.42;34.90;;;1.20;99.90;;;;;;5137585;27;20045;-76
2022/01/10 03:25:29;;;;;;;48.08;34.30;;;1.20;99.90;;;;;;5155083;27;20074;-75
2022/01/10 03:27:55;;;;;;;53.90;36.05;;;1.20;99.90;;;;;;5136250;27;20125;-76
2022/01/10 03:30:21;;;;;;;55.20;36.33;;;1.20;99.90;;;;;;5127434;27;20070;-72
2022/01/10 03:32:48;;;;;;;56.75;36.58;;;1.20;99.90;;;;;;5114304;28;20051;-76
2022/01/10 03:35:15;;;;;;;54.25;36.63;;;1.10;99.90;;;;;;5118095;27;20458;-76
2022/01/10 03:37:41;;;;;;;50.72;35.25;;;1.10;99.90;;;;;;5123153;27;20043;-75
2022/01/10 03:40:07;;;;;;;53.15;35.80;;;1.10;99.90;;;;;;5117106;27;20035;-76
2022/01/10 03:42:33;;;;;;;56.30;36.15;;;1.10;99.90;;;;;;5134083;27;20188;-76
2022/01/10 03:45:00;;;;;;;53.00;37.17;;;1.10;99.90;;;;;;5132573;27;20080;-76
2022/01/10 03:47:26;;;;;;;58.03;38.67;;;1.00;99.90;;;;;;5133835;27;20076;-75
2022/01/10 03:49:51;;;;;;;52.65;37.33;;;1.00;99.90;;;;;;5149533;27;20448;-76
2022/01/10 03:52:17;;;;;;;55.17;37.00;;;1.00;99.90;;;;;;5113937;28;20130;-76
2022/01/10 03:54:43;;;;;;;56.15;37.88;;;1.00;99.90;;;;;;5112667;28;20044;-75
2022/01/10 03:57:10;;;;;;;60.38;38.92;;;1.00;99.90;;;;;;5133883;27;20411;-74
2022/01/10 03:59:36;;;;;;;57.63;38.83;;;1.00;99.90;;;;;;5132400;27;20118;-75
2022/01/10 04:02:04;;;;;;;54.10;37.33;;;1.00;99.90;;;;;;5150327;27;20118;-76
2022/01/10 04:04:30;;;;;;;53.75;35.78;;;1.00;99.90;;;;;;5132530;27;20047;-75
2022/01/10 04:06:56;;;;;;;57.72;36.83;;;1.00;99.90;;;;;;5130084;27;20061;-73
2022/01/10 04:09:23;;;;;;;58.50;37.88;;;0.90;99.90;;;;;;5131146;27;20090;-76
2022/01/10 04:11:49;;;;;;;60.33;39.35;;;0.80;99.90;;;;;;5131263;27;20085;-76
2022/01/10 04:14:15;;;;;;;55.33;37.05;;;0.90;99.90;;;;;;5135178;27;20074;-76
2022/01/10 04:16:41;;;;;;;50.58;37.38;;;0.80;99.90;;;;;;5119461;27;20533;-76
2022/01/10 04:19:07;;;;;;;54.35;38.38;;;0.80;99.90;;;;;;5129159;27;20047;-76
2022/01/10 04:21:33;;;;;;;58.08;38.50;;;0.80;99.90;;;;;;5119504;27;20043;-75
2022/01/10 04:23:59;;;;;;;59.75;38.28;;;0.80;99.90;;;;;;5113310;28;20507;-76
2022/01/10 04:26:24;;;;;;;64.00;40.65;;;0.80;99.90;;;;;;5115054;27;20541;-76
2022/01/10 04:28:50;;;;;;;61.10;40.15;;;0.80;99.90;;;;;;5123150;27;20540;-75
2022/01/10 04:31:16;;;;;;;68.15;42.47;;;0.80;99.90;;;;;;5132110;27;20050;-76
2022/01/10 04:33:42;;;;;;;69.95;43.92;;;0.80;99.90;;;;;;5133340;27;20065;-75
2022/01/10 04:36:08;;;;;;;65.53;44.35;;;0.80;99.90;;;;;;5131600;27;20047;-76
2022/01/10 04:38:34;;;;;;;65.70;44.33;;;0.80;99.90;;;;;;5130173;27;20039;-75
2022/01/10 04:41:02;;;;;;;59.90;42.72;;;0.80;99.90;;;;;;5113755;27;20122;-76
2022/01/10 04:43:28;;;;;;;62.83;42.45;;;0.80;99.90;;;;;;5116859;27;20505;-76
2022/01/10 04:45:53;;;;;;;61.55;42.97;;;0.80;99.90;;;;;;5143478;27;20052;-76
2022/01/10 04:48:19;;;;;;;71.35;43.63;;;0.80;99.90;;;;;;5115635;27;20054;-76
2022/01/10 04:51:29;;;;;;;63.15;42.72;;;0.80;99.90;;;;;;5117126;27;20046;-75
2022/01/10 04:53:35;;;;;;;62.60;41.13;;;0.70;99.90;;;;;;5106336;27;20083;-76
2022/01/10 04:56:00;;;;;;;57.85;40.25;;;0.70;99.90;;;;;;5121324;28;20078;-76
2022/01/10 04:58:26;;;;;;;59.10;39.00;;;0.60;99.90;;;;;;5131530;28;20046;-76
2022/01/10 05:00:53;;;;;;;69.30;42.47;;;0.60;99.90;;;;;;5130511;28;20027;-76
2022/01/10 05:03:19;;;;;;;67.13;39.97;;;0.60;99.90;;;;;;5138215;27;20038;-76
2022/01/10 05:05:46;;;;;;;68.28;38.78;;;0.60;99.90;;;;;;5138660;27;20047;-76
2022/01/10 05:08:12;;;;;;;62.03;40.42;;;0.50;99.90;;;;;;5119915;28;20047;-77
2022/01/10 05:10:37;;;;;;;66.20;44.35;;;0.50;99.90;;;;;;5110725;28;20054;-77
2022/01/10 05:13:03;;;;;;;72.32;47.60;;;0.50;99.90;;;;;;5132391;28;20376;-77
2022/01/10 05:15:29;;;;;;;78.00;48.65;;;0.50;99.90;;;;;;5167371;27;20036;-78
2022/01/10 05:17:54;;;;;;;77.85;48.83;;;0.50;99.90;;;;;;5153416;27;20600;-78
2022/01/10 05:20:20;;;;;;;80.00;50.65;;;0.60;99.90;;;;;;5156910;27;20039;-78
2022/01/10 05:22:46;;;;;;;79.65;50.88;;;0.60;99.90;;;;;;5157489;27;20050;-77
2022/01/10 05:25:12;;;;;;;82.75;51.70;;;0.60;99.90;;;;;;5158190;27;20053;-78
2022/01/10 05:27:37;;;;;;;84.63;50.72;;;0.60;99.90;;;;;;5156442;27;20058;-73
2022/01/10 05:30:04;;;;;;;62.67;39.65;;;0.60;99.90;;;;;;5137102;27;20040;-78
2022/01/10 05:32:30;;;;;;;65.68;40.53;;;0.60;99.90;;;;;;5137140;27;20043;-78
2022/01/10 05:34:55;;;;;;;64.25;42.58;;;0.50;99.90;;;;;;5136157;27;20051;-78
2022/01/10 05:37:21;;;;;;;75.43;44.55;;;0.50;99.90;;;;;;5137093;27;20039;-78
2022/01/10 05:39:47;;;;;;;61.17;40.03;;;0.40;99.90;;;;;;5138065;27;20049;-78
2022/01/10 05:42:14;;;;;;;73.82;42.63;;;0.40;99.90;;;;;;5137164;27;20088;-78
2022/01/10 05:44:40;;;;;;;68.15;43.55;;;0.40;99.90;;;;;;5136369;27;20491;-76
2022/01/10 05:47:06;;;;;;;74.55;47.92;;;0.40;99.90;;;;;;5136986;27;20075;-79
2022/01/10 05:49:34;;;;;;;79.20;49.72;;;0.40;99.90;;;;;;5136911;27;20483;-79
2022/01/10 05:52:01;;;;;;;84.15;52.05;;;0.40;99.90;;;;;;5136337;27;20050;-78
2022/01/10 05:54:27;;;;;;;89.60;54.60;;;0.40;99.90;;;;;;5156553;27;20042;-79
2022/01/10 05:56:53;;;;;;;92.07;53.22;;;0.50;99.90;;;;;;5156879;27;20045;-79
2022/01/10 05:59:19;;;;;;;87.57;52.38;;;0.50;99.90;;;;;;5157649;27;20121;-79
2022/01/10 06:01:45;;;;;;;193.30;61.05;;;0.50;99.90;;;;;;5156466;27;20539;-78
2022/01/10 06:04:10;;;;;;;97.82;49.38;;;0.50;99.90;;;;;;5156993;27;20039;-79
2022/01/10 06:06:36;;;;;;;62.58;41.80;;;0.40;99.90;;;;;;5155553;27;20039;-79
2022/01/10 06:09:02;;;;;;;86.57;48.72;;;0.30;99.90;;;;;;5156630;27;20603;-80
2022/01/10 06:11:28;;;;;;;82.30;47.63;;;0.30;99.90;;;;;;5157296;27;20035;-79
2022/01/10 06:13:54;;;;;;;79.80;48.47;;;0.30;99.90;;;;;;5156852;27;20501;-79
2022/01/10 06:16:19;;;;;;;85.75;52.00;;;0.20;99.90;;;;;;5157018;27;20043;-80
2022/01/10 06:18:45;;;;;;;84.55;52.38;;;0.20;99.90;;;;;;5145300;27;20039;-80
2022/01/10 06:21:11;;;;;;;96.13;53.35;;;0.20;99.90;;;;;;5136279;27;20039;-81
2022/01/10 06:23:36;;;;;;;75.35;45.83;;;0.20;99.90;;;;;;5136249;27;20047;-81
2022/01/10 06:26:02;;;;;;;80.93;50.33;;;0.20;99.90;;;;;;5135550;27;20043;-81
2022/01/10 06:28:28;;;;;;;84.05;52.00;;;0.20;99.90;;;;;;5136640;27;20078;-80
2022/01/10 06:30:54;;;;;;;94.47;56.25;;;0.20;99.90;;;;;;5135415;27;20126;-80
2022/01/10 06:33:19;;;;;;;92.05;55.80;;;0.20;99.90;;;;;;5136058;27;20043;-81
2022/01/10 06:35:45;;;;;;;104.95;58.47;;;0.20;99.90;;;;;;5135664;27;20051;-74
2022/01/10 06:38:11;;;;;;;91.85;55.90;;;0.20;99.90;;;;;;5135764;27;20043;-81
2022/01/10 06:40:36;;;;;;;95.65;55.92;;;0.30;99.90;;;;;;5136174;27;20081;-82
2022/01/10 06:43:04;;;;;;;100.97;56.33;;;0.30;99.90;;;;;;5136198;27;20039;-82
2022/01/10 06:45:30;;;;;;;101.18;59.10;;;0.30;99.90;;;;;;5135518;27;20436;-82
2022/01/10 06:47:55;;;;;;;96.40;56.67;;;0.30;99.90;;;;;;5135161;27;20090;-82
2022/01/10 06:50:21;;;;;;;100.10;58.50;;;0.30;99.90;;;;;;5135734;27;20049;-82
2022/01/10 06:52:47;;;;;;;124.60;62.65;;;0.30;99.90;;;;;;5135517;27;20043;-74
2022/01/10 06:55:13;;;;;;;106.60;58.60;;;0.30;99.90;;;;;;5139645;27;20395;-82
2022/01/10 06:57:39;;;;;;;105.35;60.25;;;0.30;99.90;;;;;;5156275;27;20047;-82
2022/01/10 07:00:05;;;;;;;116.13;63.15;;;0.30;99.90;;;;;;5155625;27;20054;-82
2022/01/10 07:02:31;;;;;;;107.13;58.60;;;0.30;99.90;;;;;;5137979;27;20054;-82
2022/01/10 07:04:57;;;;;;;103.68;58.17;;;0.20;99.90;;;;;;5155516;27;20038;-82
2022/01/10 07:07:23;;;;;;;110.78;59.72;;;0.20;99.90;;;;;;5154362;27;20043;-82
2022/01/10 07:09:48;;;;;;;105.30;58.70;;;0.20;99.90;;;;;;5156014;27;20054;-74
2022/01/10 07:12:14;;;;;;;101.78;59.20;;;0.20;99.90;;;;;;5155545;27;20049;-82
2022/01/10 07:14:40;;;;;;;104.90;58.67;;;0.20;99.90;;;;;;5155958;27;20115;-82
2022/01/10 07:17:05;;;;;;;100.97;56.33;;;0.20;99.90;;;;;;5155342;27;20089;-82
2022/01/10 07:19:31;;;;;;;104.85;58.83;;;0.20;99.90;;;;;;5139750;27;20122;-82
2022/01/10 07:21:57;;;;;;;115.55;59.63;;;0.20;99.90;;;;;;5134526;27;20035;-82
2022/01/10 07:24:23;;;;;;;121.05;55.70;;;0.20;99.90;;;;;;5135094;27;20088;-82
2022/01/10 07:26:49;;;;;;;267.77;61.30;;;0.10;99.90;;;;;;5134914;27;20054;-82
2022/01/10 07:29:15;;;;;;;452.42;108.90;;;0.10;99.90;;;;;;5143397;27;20078;-82
2022/01/10 07:31:41;;;;;;;363.08;88.88;;;0.10;99.90;;;;;;5155802;27;20078;-82
2022/01/10 07:34:10;;;;;;;166.98;64.68;;;0.10;99.90;;;;;;5146992;27;20062;-82
2022/01/10 07:36:36;;;;;;;110.10;58.95;;;0.10;99.90;;;;;;5134758;27;20058;-83
2022/01/10 07:39:03;;;;;;;138.85;66.03;;;0.10;99.90;;;;;;5134196;27;20054;-82
2022/01/10 07:41:28;;;;;;;143.32;69.40;;;0.10;99.90;;;;;;5134646;27;20054;-82
2022/01/10 07:43:56;;;;;;;122.82;63.53;;;0.10;99.90;;;;;;5134372;27;20039;-74
2022/01/10 07:46:22;;;;;;;314.90;81.75;;;0.20;99.90;;;;;;5134629;27;20051;-83
2022/01/10 07:48:48;;;;;;;293.50;74.95;;;0.10;99.90;;;;;;5134540;27;20047;-83
2022/01/10 07:51:14;;;;;;;171.15;78.07;;;0.10;99.90;;;;;;5133914;27;21097;-82
2022/01/10 07:53:41;;;;;;;127.68;68.70;;;0.10;99.90;;;;;;5134511;27;20074;-83
2022/01/10 07:56:07;;;;;;;131.20;66.50;;;0.10;99.90;;;;;;5150604;27;20042;-82
2022/01/10 07:58:34;;;;;;;138.40;68.80;;;0.20;99.90;;;;;;5155013;27;20142;-83
2022/01/10 08:01:00;;;;;;;105.32;62.70;;;0.10;99.90;;;;;;5154484;27;20043;-83
2022/01/10 08:03:26;;;;;;;112.25;69.78;;;0.10;99.90;;;;;;5154869;27;20102;-82
2022/01/10 08:05:52;;;;;;;125.93;70.40;;;0.10;99.90;;;;;;5153027;27;20539;-82
2022/01/10 08:08:18;;;;;;;115.00;69.70;;;0.10;99.90;;;;;;5154598;27;20031;-82
2022/01/10 08:10:44;;;;;;;125.50;72.15;;;0.20;99.90;;;;;;5153876;27;20088;-82
2022/01/10 08:13:09;;;;;;;128.60;71.32;;;0.20;99.90;;;;;;5154229;27;20050;-82
2022/01/10 08:15:35;;;;;;;105.32;65.13;;;0.20;99.90;;;;;;5154810;27;20117;-83
2022/01/10 08:18:02;;;;;;;101.05;61.25;;;0.20;99.90;;;;;;5154210;27;20038;-82
2022/01/10 08:20:27;;;;;;;105.55;63.92;;;0.20;99.90;;;;;;5152740;27;20074;-83
2022/01/10 08:22:53;;;;;;;93.32;63.53;;;0.20;99.90;;;;;;5154853;27;20394;-84
2022/01/10 08:25:19;;;;;;;99.53;64.75;;;0.20;99.90;;;;;;5152244;27;20136;-84
2022/01/10 08:27:45;;;;;;;99.38;63.88;;;0.30;99.90;;;;;;5153867;27;20047;-84
2022/01/10 08:30:11;;;;;;;94.45;66.50;;;0.30;99.90;;;;;;5135393;27;20047;-84
2022/01/10 08:32:37;;;;;;;103.32;69.47;;;0.30;99.90;;;;;;5133818;27;20043;-84
2022/01/10 08:35:05;;;;;;;103.10;70.15;;;0.30;99.90;;;;;;5133421;27;20100;-75
2022/01/10 08:37:30;;;;;;;98.70;69.72;;;0.40;99.90;;;;;;5133724;27;20043;-83
2022/01/10 08:39:56;;;;;;;114.38;68.32;;;0.40;99.90;;;;;;5145596;27;20110;-82
2022/01/10 08:42:24;;;;;;;96.85;64.85;;;0.40;99.90;;;;;;5153827;27;20043;-82
2022/01/10 08:44:50;;;;;;;109.70;67.55;;;0.40;99.90;;;;;;5154228;27;20047;-83
2022/01/10 08:47:16;;;;;;;92.93;60.53;;;0.50;99.90;;;;;;5153754;27;20042;-82
2022/01/10 08:49:42;;;;;;;112.30;65.38;;;0.40;99.90;;;;;;5154222;27;20046;-82
2022/01/10 08:52:08;;;;;;;99.70;64.10;;;0.50;99.90;;;;;;5153383;27;20039;-82
2022/01/10 08:54:34;;;;;;;114.68;68.28;;;0.30;99.90;;;;;;5151852;27;20061;-84
2022/01/10 08:57:00;;;;;;;117.07;70.10;;;0.30;99.90;;;;;;5152342;27;20087;-83
2022/01/10 08:59:29;;;;;;;96.40;63.92;;;0.40;99.90;;;;;;5153115;27;20042;-86
2022/01/10 09:01:57;;;;;;;103.68;64.95;;;0.40;99.90;;;;;;5153274;27;20053;-86
2022/01/10 09:04:23;;;;;;;107.63;65.68;;;0.40;99.90;;;;;;5153501;27;20049;-86
2022/01/10 09:06:51;;;;;;;119.68;71.07;;;0.40;99.90;;;;;;5153022;27;20047;-86
2022/01/10 09:09:18;;;;;;;108.82;70.15;;;0.40;99.90;;;;;;5153530;27;20057;-84
2022/01/10 09:11:44;;;;;;;119.40;71.10;;;0.50;99.90;;;;;;5144640;27;20516;-85
2022/01/10 09:14:11;;;;;;;119.45;69.55;;;0.50;99.90;;;;;;5132743;28;20044;-84
2022/01/10 09:16:37;;;;;;;110.43;66.25;;;0.50;99.90;;;;;;5123067;27;20079;-77
2022/01/10 09:19:03;;;;;;;104.78;64.65;;;0.60;99.90;;;;;;5143204;27;20415;-85
2022/01/10 09:21:29;;;;;;;99.35;66.15;;;0.60;99.90;;;;;;5150467;27;20057;-81
2022/01/10 09:23:55;;;;;;;140.75;79.13;;;0.60;99.90;;;;;;5137208;27;20036;-85
2022/01/10 09:26:21;;;;;;;100.30;67.75;;;0.60;99.90;;;;;;5128436;28;20062;-85
2022/01/10 09:28:47;;;;;;;105.05;70.00;;;0.70;99.90;;;;;;5129733;27;20043;-83
2022/01/10 09:31:13;;;;;;;104.60;68.18;;;0.80;99.90;;;;;;5129553;28;20498;-79
2022/01/10 09:33:40;;;;;;;112.22;74.40;;;0.80;99.90;;;;;;5129671;27;20448;-87
2022/01/10 09:36:06;;;;;;;103.30;69.93;;;0.80;99.90;;;;;;5130605;27;20050;-86
2022/01/10 09:38:32;;;;;;;106.75;72.65;;;0.90;99.90;;;;;;5129319;27;20492;-79
2022/01/10 09:40:58;;;;;;;94.93;65.85;;;0.90;99.90;;;;;;5163223;27;20152;-87
2022/01/10 09:43:24;;;;;;;95.97;66.07;;;1.00;99.90;;;;;;5129735;27;20086;-86
2022/01/10 09:45:51;;;;;;;96.05;67.72;;;1.00;99.90;;;;;;5146790;27;20140;-77
2022/01/10 09:48:17;;;;;;;98.78;69.10;;;1.00;99.90;;;;;;5108335;28;20492;-84
2022/01/10 09:50:44;;;;;;;98.68;67.43;;;1.10;99.90;;;;;;5109615;28;20045;-85
2022/01/10 09:53:12;;;;;;;106.90;68.28;;;1.10;99.90;;;;;;5119725;27;20042;-75
2022/01/10 09:55:38;;;;;;;99.43;67.20;;;1.10;99.90;;;;;;5139711;27;20047;-86
2022/01/10 09:58:04;;;;;;;91.60;65.78;;;1.20;99.90;;;;;;5129543;28;20055;-87
2022/01/10 10:00:31;;;;;;;91.43;67.13;;;1.20;99.90;;;;;;5128537;27;20039;-81
2022/01/10 10:02:56;;;;;;;94.43;65.65;;;1.20;99.90;;;;;;5127854;28;20097;-84
2022/01/10 10:05:23;;;;;;;100.50;71.38;;;1.30;99.90;;;;;;5128995;27;20062;-85
2022/01/10 10:07:50;;;;;;;92.93;66.53;;;1.30;99.90;;;;;;5132983;27;20039;-85
2022/01/10 10:10:17;;;;;;;90.05;67.93;;;1.40;99.90;;;;;;5131385;27;20039;-84
2022/01/10 10:12:47;;;;;;;99.57;70.05;;;1.40;99.90;;;;;;5135313;27;20103;-85
2022/01/10 10:15:15;;;;;;;94.47;69.78;;;1.50;99.90;;;;;;5128734;27;20081;-76
2022/01/10 10:17:42;;;;;;;97.18;70.57;;;1.50;99.90;;;;;;5132145;27;20088;-84
2022/01/10 10:20:15;;;;;;;93.00;69.88;;;1.60;99.90;;;;;;5132943;27;20082;-84
2022/01/10 10:22:42;;;;;;;103.13;73.88;;;1.70;99.90;;;;;;5131181;27;20039;-83
2022/01/10 10:25:09;;;;;;;98.38;72.40;;;1.90;99.90;;;;;;5131758;27;20075;-81
2022/01/10 10:27:43;;;;;;;98.57;75.22;;;2.00;99.90;;;;;;5156549;27;20095;-79
2022/01/10 10:30:21;;;;;;;100.15;75.07;;;2.20;99.90;;;;;;5131622;27;20059;-80
2022/01/10 10:32:49;;;;;;;91.80;71.20;;;2.40;99.90;;;;;;5131107;27;20519;-79
2022/01/10 10:35:15;;;;;;;90.85;69.15;;;2.50;99.90;;;;;;5132224;27;20636;-79
2022/01/10 10:37:43;;;;;;;84.55;67.05;;;2.60;99.90;;;;;;5132209;27;20079;-79
2022/01/10 10:40:12;;;;;;;77.45;65.85;;;2.80;99.90;;;;;;5131838;27;20087;-80
2022/01/10 10:42:39;;;;;;;77.38;64.88;;;2.90;99.90;;;;;;5127428;27;20651;-80
2022/01/10 10:45:11;;;;;;;69.82;59.75;;;3.10;99.90;;;;;;5136155;27;20057;-75
2022/01/10 10:47:39;;;;;;;70.45;57.25;;;3.20;99.90;;;;;;5131459;27;20547;-80
2022/01/10 10:50:07;;;;;;;60.60;52.80;;;3.30;99.90;;;;;;5133938;27;20429;-77
2022/01/10 10:52:35;;;;;;;57.40;51.20;;;3.40;99.90;;;;;;5134405;27;20078;-77
2022/01/10 10:55:05;;;;;;;58.35;49.78;;;3.50;99.90;;;;;;5132737;27;20527;-78
2022/01/10 10:57:32;;;;;;;53.33;47.47;;;3.50;99.90;;;;;;5131626;27;20043;-76
2022/01/10 10:59:59;;;;;;;54.15;47.47;;;3.60;99.90;;;;;;5133408;27;20483;-78
2022/01/10 11:02:26;;;;;;;53.75;45.35;;;3.60;99.90;;;;;;5131978;27;20039;-77
2022/01/10 11:04:52;;;;;;;53.22;45.30;;;3.60;99.90;;;;;;5130813;27;20046;-78
2022/01/10 11:07:22;;;;;;;50.38;44.92;;;3.60;99.90;;;;;;5131565;27;20039;-78
2022/01/10 11:09:49;;;;;;;50.95;43.83;;;3.70;99.90;;;;;;5131545;27;20047;-79
2022/01/10 11:12:17;;;;;;;55.25;44.92;;;3.70;99.90;;;;;;5131621;27;20043;-75
2022/01/10 11:14:43;;;;;;;50.50;44.40;;;3.70;99.90;;;;;;5131212;27;20031;-78
2022/01/10 11:17:19;;;;;;;53.20;44.97;;;3.70;99.90;;;;;;5129816;27;20050;-78
2022/01/10 11:20:13;;;;;;;50.38;45.15;;;3.70;99.90;;;;;;5129592;27;20051;-78
2022/01/10 11:22:47;;;;;;;53.17;43.85;;;3.70;99.90;;;;;;5128579;27;20364;-77
2022/01/10 11:25:31;;;;;;;50.25;43.67;;;3.70;99.90;;;;;;5131695;27;20043;-76
2022/01/10 11:28:05;;;;;;;46.90;41.22;;;3.80;99.90;;;;;;5131546;27;20043;-77
2022/01/10 11:30:32;;;;;;;46.97;40.80;;;3.80;99.90;;;;;;5129874;27;20035;-77
2022/01/10 11:33:07;;;;;;;47.58;41.35;;;3.80;99.90;;;;;;5131580;27;20050;-78
2022/01/10 11:35:40;;;;;;;44.45;39.63;;;3.80;99.90;;;;;;5131011;27;20063;-75
2022/01/10 11:38:35;;;;;;;43.13;38.30;;;3.90;99.90;;;;;;5152220;27;20039;-78
2022/01/10 11:41:07;;;;;;;44.42;39.13;;;3.90;99.90;;;;;;5151591;27;20111;-78
2022/01/10 11:44:03;;;;;;;44.38;39.08;;;3.90;99.90;;;;;;5149089;27;20060;-78
2022/01/10 11:46:31;;;;;;;45.58;40.67;;;4.00;99.90;;;;;;5151550;27;20455;-78
2022/01/10 11:49:00;;;;;;;46.47;41.25;;;4.00;99.90;;;;;;5152443;27;20390;-77
2022/01/10 11:51:41;;;;;;;45.20;40.33;;;4.10;99.90;;;;;;5151601;27;20038;-73
2022/01/10 11:54:26;;;;;;;45.10;39.40;;;4.10;99.90;;;;;;5138322;27;20045;-77
2022/01/10 11:57:04;;;;;;;44.53;39.78;;;4.20;99.90;;;;;;5131486;27;20046;-77
2022/01/10 11:59:30;;;;;;;43.15;37.50;;;4.20;99.90;;;;;;5130649;27;20051;-77
2022/01/10 12:02:10;;;;;;;39.22;34.13;;;4.30;99.90;;;;;;5131736;27;20126;-77
2022/01/10 12:04:37;;;;;;;38.67;34.65;;;4.30;99.90;;;;;;5131047;27;20043;-78
2022/01/10 12:07:06;;;;;;;38.22;34.22;;;4.30;99.90;;;;;;5131031;27;20039;-78
2022/01/10 12:09:32;;;;;;;42.97;34.47;;;4.30;99.90;;;;;;5130399;27;20069;-78
2022/01/10 12:12:00;;;;;;;37.50;33.38;;;4.30;99.90;;;;;;5131168;27;20039;-79
2022/01/10 12:14:26;;;;;;;36.63;32.53;;;4.40;99.90;;;;;;5130732;27;20082;-76
2022/01/10 12:16:53;;;;;;;35.67;31.90;;;4.40;99.90;;;;;;5130200;27;20103;-77
2022/01/10 12:19:19;;;;;;;36.13;31.92;;;4.40;99.90;;;;;;5135360;27;20046;-78
2022/01/10 12:21:45;;;;;;;35.72;31.52;;;4.40;99.90;;;;;;5130091;27;20487;-78
2022/01/10 12:24:12;;;;;;;35.75;31.92;;;4.40;99.90;;;;;;5130945;27;20043;-75
2022/01/10 12:26:38;;;;;;;35.95;32.22;;;4.40;99.90;;;;;;5130505;27;20047;-78
2022/01/10 12:29:06;;;;;;;36.22;32.47;;;4.40;99.90;;;;;;5129481;27;20807;-76
2022/01/10 12:31:34;;;;;;;35.08;31.48;;;4.40;99.90;;;;;;5149578;27;20039;-73
2022/01/10 12:34:01;;;;;;;34.85;31.23;;;4.40;99.90;;;;;;5151079;27;20521;-78
2022/01/10 12:36:28;;;;;;;34.03;30.50;;;4.40;99.90;;;;;;5151275;27;20061;-77
2022/01/10 12:39:01;;;;;;;33.72;30.10;;;4.40;99.90;;;;;;5150723;27;20335;-74
2022/01/10 12:41:28;;;;;;;32.85;29.38;;;4.40;99.90;;;;;;5136594;27;20058;-78
2022/01/10 12:43:54;;;;;;;34.85;30.90;;;4.40;99.90;;;;;;5129912;27;20046;-78
2022/01/10 12:46:21;;;;;;;37.50;32.65;;;4.30;99.90;;;;;;5130338;27;20043;-77
2022/01/10 12:48:50;;;;;;;36.10;31.88;;;4.40;99.90;;;;;;5130377;27;20043;-78